Presidente Kennedy, Brazil
Current Conditions -  °F | °C
As of 6:00 AM on Wednesday 26 Nov 2014 (Local Time) from SBPJ Reporting Station
Scattered Clouds Scattered Clouds  
Wind Chill: 75°   Ceiling: Unl
Heat Index: 75°   Visibility: 6mi
Dew Point: 72°   Wind: 6mph
Humidity: 89%   Direction: 170°S
Pressure: 29.83"   Gusts: NA
Location:  8.54°S, 48.51°W
Report Text: SBPJ 260900Z 17005KT 9999 FEW015 SCT070 24/22 Q1010
Loading
Personal Weather Stations






























Interactive Weather Map New forecast layout! Learn more

10-Day Weather Forecast

Advertisements
Track Severe Weather on mobile